createdAt,value
2023-05-04T00:00:19.965Z,26.09
2023-05-04T00:02:21.871Z,26.06
2023-05-04T00:04:23.595Z,26.10
2023-05-04T00:06:25.066Z,26.08
2023-05-04T00:08:26.955Z,26.05
2023-05-04T00:10:28.676Z,26.09
2023-05-04T00:12:30.659Z,26.06
2023-05-04T00:14:32.316Z,26.03
2023-05-04T00:16:35.961Z,26.05
2023-05-04T00:18:38.015Z,26.10
2023-05-04T00:20:39.709Z,26.12
2023-05-04T00:22:41.464Z,26.09
2023-05-04T00:24:45.952Z,26.06
2023-05-04T00:26:47.642Z,26.12
2023-05-04T00:28:49.092Z,26.06
2023-05-04T00:30:53.304Z,26.06
2023-05-04T00:32:54.908Z,26.11
2023-05-04T00:34:57.175Z,26.11
2023-05-04T00:36:58.750Z,26.14
2023-05-04T00:39:00.324Z,26.14
2023-05-04T00:41:01.890Z,26.14
2023-05-04T00:43:03.423Z,26.14
2023-05-04T00:45:05.569Z,26.12
2023-05-04T00:47:08.857Z,26.15
2023-05-04T00:49:10.969Z,26.13
2023-05-04T00:51:15.601Z,26.22
2023-05-04T00:53:17.256Z,26.16
2023-05-04T00:55:19.117Z,26.17
2023-05-04T00:57:20.863Z,26.19
2023-05-04T00:59:22.426Z,26.17
2023-05-04T01:01:24.918Z,26.12
2023-05-04T01:03:28.367Z,26.15
2023-05-04T01:05:36.289Z,26.20
2023-05-04T01:07:37.957Z,26.19
2023-05-04T01:09:41.995Z,26.17
2023-05-04T01:11:58.230Z,26.13
2023-05-04T01:14:02.075Z,26.18
2023-05-04T01:16:04.901Z,26.14
2023-05-04T01:18:07.197Z,26.21
2023-05-04T01:22:11.229Z,26.22
2023-05-04T01:24:12.836Z,26.22
2023-05-04T01:26:16.907Z,26.20
2023-05-04T01:28:21.222Z,26.21
2023-05-04T01:30:43.408Z,26.23
2023-05-04T01:32:46.024Z,26.23
2023-05-04T01:34:48.112Z,26.23
2023-05-04T01:36:50.577Z,26.26
2023-05-04T01:38:57.586Z,26.26
2023-05-04T01:40:59.160Z,26.26
2023-05-04T01:43:00.890Z,26.26
2023-05-04T01:45:03.294Z,26.26
2023-05-04T01:47:05.044Z,26.24
2023-05-04T01:49:07.902Z,26.28
2023-05-04T01:51:09.458Z,26.26
2023-05-04T01:53:11.087Z,26.26
2023-05-04T01:55:12.790Z,26.25
2023-05-04T01:57:14.498Z,26.22
2023-05-04T01:59:16.023Z,26.23
2023-05-04T02:01:17.659Z,26.21
2023-05-04T02:03:19.210Z,26.22
2023-05-04T02:05:20.873Z,26.18
2023-05-04T02:07:22.582Z,26.22
2023-05-04T02:09:24.242Z,26.21
2023-05-04T02:11:25.761Z,26.22
2023-05-04T02:13:27.476Z,26.22
2023-05-04T02:15:28.956Z,26.23
2023-05-04T02:17:30.833Z,26.19
2023-05-04T02:19:32.487Z,26.24
2023-05-04T02:21:33.968Z,26.23
2023-05-04T02:23:35.529Z,26.23
2023-05-04T02:25:41.478Z,26.27
2023-05-04T02:27:43.235Z,26.26
2023-05-04T02:29:45.295Z,26.27
2023-05-04T02:31:46.759Z,26.24
2023-05-04T02:33:50.620Z,26.24
2023-05-04T02:35:52.150Z,26.29
2023-05-04T02:37:53.765Z,26.29
2023-05-04T02:39:55.464Z,26.30
2023-05-04T02:41:57.024Z,26.26
2023-05-04T02:43:58.480Z,26.27
2023-05-04T02:46:00.158Z,26.23
2023-05-04T02:48:02.425Z,26.27
2023-05-04T02:50:04.945Z,26.28
2023-05-04T02:52:06.764Z,26.30
2023-05-04T02:54:08.458Z,26.28
2023-05-04T02:56:10.071Z,26.29
2023-05-04T02:58:11.590Z,26.29
2023-05-04T03:00:13.819Z,26.25
2023-05-04T03:02:15.418Z,26.28
2023-05-04T03:04:17.089Z,26.28
2023-05-04T03:06:18.542Z,26.27
2023-05-04T03:08:20.031Z,26.22
2023-05-04T03:10:22.058Z,26.27
2023-05-04T03:12:24.777Z,26.28
2023-05-04T03:14:26.335Z,26.28
2023-05-04T03:16:28.005Z,26.33
2023-05-04T03:20:48.678Z,26.28
2023-05-04T03:22:50.447Z,26.34
2023-05-04T03:24:52.114Z,26.29
2023-05-04T03:26:54.630Z,26.29
2023-05-04T03:28:56.312Z,26.23
2023-05-04T03:30:57.773Z,26.26
2023-05-04T03:33:00.006Z,26.26
2023-05-04T03:35:03.936Z,26.28
2023-05-04T03:37:05.680Z,26.33
2023-05-04T03:39:07.872Z,26.30
2023-05-04T03:41:10.640Z,26.23
2023-05-04T03:43:12.180Z,26.35
2023-05-04T03:45:13.749Z,26.33
2023-05-04T03:47:15.336Z,26.33
2023-05-04T03:49:16.902Z,26.33
2023-05-04T03:51:18.607Z,26.31
2023-05-04T03:53:20.184Z,26.32
2023-05-04T03:55:21.853Z,26.27
2023-05-04T03:57:24.270Z,26.27
2023-05-04T03:59:25.903Z,26.28
2023-05-04T04:01:27.360Z,26.28
2023-05-04T04:03:29.154Z,26.24
2023-05-04T04:05:30.858Z,26.31
2023-05-04T04:07:33.272Z,26.33
2023-05-04T04:09:34.952Z,26.36
2023-05-04T04:11:36.555Z,26.30
2023-05-04T04:13:38.159Z,26.28
2023-05-04T04:15:43.136Z,26.29
2023-05-04T04:17:44.717Z,26.29
2023-05-04T04:19:46.379Z,26.31
2023-05-04T04:21:48.033Z,26.30
2023-05-04T04:23:49.447Z,26.32
2023-05-04T04:25:51.373Z,26.27
2023-05-04T04:27:53.365Z,26.33
2023-05-04T04:29:54.944Z,26.36
2023-05-04T04:31:56.906Z,26.34
2023-05-04T04:33:59.271Z,26.33
2023-05-04T04:36:01.286Z,26.23
2023-05-04T04:38:03.958Z,26.33
2023-05-04T04:40:07.570Z,26.35
2023-05-04T04:42:09.205Z,26.37
2023-05-04T04:44:11.631Z,26.37
2023-05-04T04:46:13.271Z,26.36
2023-05-04T04:48:14.933Z,26.37
2023-05-04T04:50:16.649Z,26.29
2023-05-04T04:52:18.358Z,26.33
2023-05-04T04:54:19.800Z,26.31
2023-05-04T04:56:21.957Z,26.30
2023-05-04T04:58:23.644Z,26.35
2023-05-04T05:00:26.135Z,26.33
2023-05-04T05:02:30.304Z,26.30
2023-05-04T05:04:31.911Z,26.36
2023-05-04T05:06:33.603Z,26.36
2023-05-04T05:08:35.129Z,26.34
2023-05-04T05:10:36.560Z,26.31
2023-05-04T05:12:38.115Z,26.30
2023-05-04T05:14:39.660Z,26.18
2023-05-04T05:16:41.280Z,26.21
2023-05-04T05:18:43.277Z,26.29
2023-05-04T05:20:44.827Z,26.30
2023-05-04T05:22:46.437Z,26.27
2023-05-04T05:24:48.069Z,26.29
2023-05-04T05:26:49.811Z,26.28
2023-05-04T05:28:51.497Z,26.30
2023-05-04T05:30:53.287Z,26.28
2023-05-04T05:32:55.039Z,26.29
2023-05-04T05:34:56.842Z,26.32
2023-05-04T05:36:58.649Z,26.31
2023-05-04T05:39:00.809Z,26.31
2023-05-04T05:41:02.442Z,26.37
2023-05-04T05:43:05.864Z,26.31
2023-05-04T05:45:08.278Z,26.34
2023-05-04T05:47:09.785Z,26.36
2023-05-04T05:49:11.381Z,26.37
2023-05-04T05:51:12.860Z,26.36
2023-05-04T05:53:14.405Z,26.32
2023-05-04T05:55:16.132Z,26.32
2023-05-04T05:57:17.760Z,26.30
2023-05-04T05:59:19.244Z,26.26
2023-05-04T06:01:21.157Z,26.24
2023-05-04T06:03:22.960Z,26.26
2023-05-04T06:05:24.702Z,26.30
2023-05-04T06:07:26.392Z,26.30
2023-05-04T06:09:28.001Z,26.32
2023-05-04T06:11:29.594Z,26.31
2023-05-04T06:13:31.137Z,26.30
2023-05-04T06:15:32.701Z,26.30
2023-05-04T06:17:34.210Z,26.30
2023-05-04T06:19:37.891Z,26.29
2023-05-04T06:21:39.511Z,26.35
2023-05-04T06:23:41.925Z,26.31
2023-05-04T06:25:43.491Z,26.27
2023-05-04T06:27:45.170Z,26.33
2023-05-04T06:29:46.699Z,26.36
2023-05-04T06:31:48.573Z,26.29
2023-05-04T06:33:51.260Z,26.36
2023-05-04T06:35:53.225Z,26.38
2023-05-04T06:37:54.792Z,26.37
2023-05-04T06:39:57.133Z,26.34
2023-05-04T06:41:59.536Z,26.35
2023-05-04T06:44:01.488Z,26.31
2023-05-04T06:46:04.052Z,26.36
2023-05-04T06:48:06.218Z,26.35
2023-05-04T06:50:11.823Z,26.41
2023-05-04T06:52:14.358Z,26.40
2023-05-04T06:54:16.069Z,26.38
2023-05-04T06:56:17.533Z,26.37
2023-05-04T06:58:19.982Z,26.36
2023-05-04T07:00:21.799Z,26.37
2023-05-04T07:02:23.699Z,26.28
2023-05-04T07:04:25.421Z,26.38
2023-05-04T07:06:27.296Z,26.38
2023-05-04T07:08:29.041Z,26.38
2023-05-04T07:10:30.984Z,26.39
2023-05-04T07:12:32.666Z,26.42
2023-05-04T07:14:34.695Z,26.44
2023-05-04T07:16:36.265Z,26.43
2023-05-04T07:18:38.932Z,26.49
2023-05-04T07:20:42.529Z,26.43
2023-05-04T07:22:44.298Z,26.42
2023-05-04T07:24:46.672Z,26.40
2023-05-04T07:26:48.213Z,26.37
2023-05-04T07:28:50.195Z,26.45
2023-05-04T07:30:51.835Z,26.46
2023-05-04T07:32:53.281Z,26.45
2023-05-04T07:34:54.922Z,26.45
2023-05-04T07:36:56.381Z,26.45
2023-05-04T07:38:57.912Z,26.44
2023-05-04T07:40:59.466Z,26.46
2023-05-04T07:43:01.032Z,26.46
2023-05-04T07:45:03.464Z,26.44
2023-05-04T07:47:07.770Z,26.47
2023-05-04T07:49:09.310Z,26.50
2023-05-04T07:51:14.983Z,26.54
2023-05-04T07:53:16.577Z,26.53
2023-05-04T07:55:18.934Z,26.55
2023-05-04T07:57:21.450Z,26.56
2023-05-04T07:59:23.008Z,26.59
2023-05-04T08:01:25.197Z,26.59
2023-05-04T08:03:27.023Z,26.60
2023-05-04T08:05:28.644Z,26.58
2023-05-04T08:07:30.285Z,26.60
2023-05-04T08:09:31.731Z,26.60
2023-05-04T08:11:34.729Z,26.61
2023-05-04T08:13:36.187Z,26.58
2023-05-04T08:15:37.672Z,26.56
2023-05-04T08:17:40.717Z,26.59
2023-05-04T08:19:42.222Z,26.47
2023-05-04T08:21:43.696Z,26.49
2023-05-04T08:23:45.101Z,26.38
2023-05-04T08:25:46.680Z,26.34
2023-05-04T08:27:48.360Z,26.31
2023-05-04T08:29:49.788Z,26.30
2023-05-04T08:31:51.388Z,26.28
2023-05-04T08:33:52.837Z,26.28
2023-05-04T08:35:54.303Z,26.23
2023-05-04T08:37:55.804Z,26.22
2023-05-04T08:39:57.347Z,26.22
2023-05-04T08:41:59.232Z,26.13
2023-05-04T08:44:01.180Z,26.11
2023-05-04T08:46:03.933Z,26.09
2023-05-04T08:48:09.014Z,26.07
2023-05-04T08:50:11.066Z,25.97
2023-05-04T08:52:13.569Z,25.99
2023-05-04T08:54:15.499Z,25.95
2023-05-04T08:56:17.653Z,25.88
2023-05-04T08:58:22.097Z,25.86
2023-05-04T09:00:24.130Z,25.83
2023-05-04T09:02:26.611Z,25.72
2023-05-04T09:04:29.628Z,25.76
2023-05-04T09:06:31.798Z,25.68
2023-05-04T09:08:33.380Z,25.64
2023-05-04T09:10:34.948Z,25.69
2023-05-04T09:12:38.027Z,25.64
2023-05-04T09:14:41.344Z,25.56
2023-05-04T09:16:42.919Z,25.47
2023-05-04T09:18:44.905Z,25.49
2023-05-04T09:20:47.280Z,25.40
2023-05-04T09:22:59.411Z,25.49
2023-05-04T09:25:10.949Z,25.45
2023-05-04T09:27:13.269Z,25.52
2023-05-04T09:29:15.123Z,25.42
2023-05-04T09:31:16.724Z,25.45
2023-05-04T09:33:25.379Z,25.50
2023-05-04T09:35:33.226Z,25.54
2023-05-04T09:37:43.085Z,25.48
2023-05-04T09:39:51.656Z,25.52
2023-05-04T09:41:53.289Z,25.52
2023-05-04T09:43:54.885Z,25.49
2023-05-04T09:45:56.579Z,25.52
2023-05-04T09:47:58.696Z,25.54
2023-05-04T09:50:10.667Z,25.56
2023-05-04T09:52:12.561Z,25.59
2023-05-04T09:54:15.490Z,25.61
2023-05-04T09:56:20.038Z,25.65
2023-05-04T09:58:22.906Z,25.68
2023-05-04T10:00:25.444Z,25.74
2023-05-04T10:02:27.275Z,25.77
2023-05-04T10:04:28.868Z,25.76
2023-05-04T10:06:30.521Z,25.77
2023-05-04T10:08:33.062Z,25.84
2023-05-04T10:10:35.840Z,25.88
2023-05-04T10:12:37.440Z,25.86
2023-05-04T10:14:39.037Z,25.86
2023-05-04T10:16:55.583Z,25.87
2023-05-04T10:19:26.613Z,25.97
2023-05-04T10:21:37.300Z,25.96
2023-05-04T10:23:59.132Z,25.91
2023-05-04T10:26:20.318Z,25.85
2023-05-04T10:28:31.266Z,26.02
2023-05-04T10:30:32.950Z,26.09
2023-05-04T10:32:39.849Z,26.05
2023-05-04T10:34:41.667Z,26.03
2023-05-04T10:36:43.243Z,25.96
2023-05-04T10:38:44.660Z,25.99
2023-05-04T10:40:50.624Z,25.97
2023-05-04T10:42:52.035Z,25.95
2023-05-04T10:44:55.452Z,25.91
2023-05-04T10:47:01.304Z,25.94
2023-05-04T10:49:02.943Z,25.89
2023-05-04T10:51:04.562Z,25.93
2023-05-04T10:53:06.252Z,25.92
2023-05-04T10:55:09.007Z,25.94
2023-05-04T10:57:11.588Z,25.98
2023-05-04T10:59:14.886Z,26.03
2023-05-04T11:01:16.900Z,26.02
2023-05-04T11:03:21.962Z,26.05
2023-05-04T11:05:23.554Z,25.97
2023-05-04T11:07:32.702Z,25.95
2023-05-04T11:09:44.360Z,25.93
2023-05-04T11:11:45.899Z,26.05
2023-05-04T11:13:47.548Z,26.08
2023-05-04T11:15:50.150Z,26.04
2023-05-04T11:17:52.399Z,26.05
2023-05-04T11:19:54.021Z,26.08
2023-05-04T11:21:55.505Z,25.98
2023-05-04T11:24:00.263Z,25.95
2023-05-04T11:26:06.548Z,25.87
2023-05-04T11:28:09.563Z,25.84
2023-05-04T11:30:16.067Z,25.90
2023-05-04T11:32:17.868Z,25.87
2023-05-04T11:34:20.364Z,25.89
2023-05-04T11:36:22.389Z,25.96
2023-05-04T11:38:24.019Z,25.96
2023-05-04T11:40:26.976Z,26.00
2023-05-04T11:42:28.769Z,25.95
2023-05-04T11:44:30.367Z,26.01
2023-05-04T11:46:33.100Z,25.99
2023-05-04T11:48:35.358Z,25.98
2023-05-04T11:50:37.350Z,25.96
2023-05-04T11:52:40.717Z,26.01
2023-05-04T11:54:42.589Z,25.99
2023-05-04T11:56:44.039Z,25.93
2023-05-04T11:58:45.746Z,25.84
2023-05-04T12:00:49.165Z,25.80
2023-05-04T12:02:55.508Z,25.83
2023-05-04T12:04:57.146Z,25.82
2023-05-04T12:07:00.312Z,25.80
2023-05-04T12:09:04.993Z,25.79
2023-05-04T12:11:16.404Z,25.83
2023-05-04T12:13:18.197Z,25.80
2023-05-04T12:15:33.071Z,25.82
2023-05-04T12:17:42.026Z,25.80
2023-05-04T12:19:50.627Z,25.79
2023-05-04T12:21:56.663Z,25.81
2023-05-04T12:23:58.192Z,25.80
2023-05-04T12:26:02.619Z,25.95
2023-05-04T12:28:04.121Z,26.06
2023-05-04T12:30:06.434Z,26.23
2023-05-04T12:32:08.243Z,26.38
2023-05-04T12:34:09.860Z,26.55
2023-05-04T12:36:11.661Z,26.60
2023-05-04T12:38:13.146Z,26.70
2023-05-04T12:40:27.775Z,26.68
2023-05-04T12:42:30.209Z,26.58
2023-05-04T12:44:31.748Z,26.64
2023-05-04T12:46:33.291Z,26.75
2023-05-04T12:48:35.049Z,26.92
2023-05-04T12:50:36.698Z,27.02
2023-05-04T12:52:39.826Z,27.15
2023-05-04T12:54:41.357Z,27.25
2023-05-04T12:56:43.168Z,27.32
2023-05-04T12:58:44.578Z,27.32
2023-05-04T13:00:46.503Z,27.40
2023-05-04T13:02:48.114Z,27.51
2023-05-04T13:04:49.670Z,27.53
2023-05-04T13:06:51.869Z,27.47
2023-05-04T13:08:53.402Z,27.50
2023-05-04T13:10:54.988Z,27.48
2023-05-04T13:12:56.570Z,27.56
2023-05-04T13:14:58.888Z,27.47
2023-05-04T13:17:00.471Z,27.31
2023-05-04T13:19:02.147Z,27.37
2023-05-04T13:21:03.723Z,27.49
2023-05-04T13:23:05.175Z,27.60
2023-05-04T13:25:07.860Z,27.56
2023-05-04T13:27:09.921Z,27.58
2023-05-04T13:29:11.428Z,27.62
2023-05-04T13:31:12.945Z,27.44
2023-05-04T13:33:28.165Z,27.31
2023-05-04T13:35:31.150Z,27.20
2023-05-04T13:37:32.668Z,27.30
2023-05-04T13:39:44.224Z,27.47
2023-05-04T13:41:45.740Z,27.42
2023-05-04T13:43:48.161Z,27.29
2023-05-04T13:45:49.922Z,27.29
2023-05-04T13:47:53.517Z,27.36
2023-05-04T13:49:55.222Z,27.53
2023-05-04T13:51:56.950Z,27.44
2023-05-04T13:54:00.561Z,27.41
2023-05-04T13:56:03.410Z,27.54
2023-05-04T13:58:05.100Z,27.63
2023-05-04T14:00:08.241Z,27.65
2023-05-04T14:02:10.333Z,27.73
2023-05-04T14:04:11.850Z,27.78
2023-05-04T14:06:13.368Z,27.87
2023-05-04T14:08:14.835Z,27.76
2023-05-04T14:10:16.304Z,27.83
2023-05-04T14:12:20.327Z,27.85
2023-05-04T14:14:22.266Z,27.71
2023-05-04T14:16:23.784Z,27.67
2023-05-04T14:18:25.461Z,27.59
2023-05-04T14:20:27.072Z,27.60
2023-05-04T14:22:28.756Z,27.51
2023-05-04T14:24:30.388Z,27.55
2023-05-04T14:26:32.837Z,27.60
2023-05-04T14:28:34.250Z,27.70
2023-05-04T14:30:35.709Z,27.72
2023-05-04T14:32:37.158Z,27.79
2023-05-04T14:34:38.818Z,27.84
2023-05-04T14:36:40.251Z,27.72
2023-05-04T14:38:42.792Z,27.73
2023-05-04T14:40:44.333Z,27.73
2023-05-04T14:42:45.854Z,27.65
2023-05-04T14:44:47.947Z,27.42
2023-05-04T14:46:49.604Z,27.27
2023-05-04T14:48:51.112Z,27.24
2023-05-04T14:50:53.212Z,27.11
2023-05-04T14:52:54.785Z,27.12
2023-05-04T14:54:56.362Z,27.16
2023-05-04T14:56:58.986Z,26.99
2023-05-04T14:59:01.690Z,26.87
2023-05-04T15:01:03.561Z,26.86
2023-05-04T15:03:05.579Z,26.82
2023-05-04T15:05:07.616Z,26.77
2023-05-04T15:07:09.641Z,26.77
2023-05-04T15:09:11.464Z,26.79
2023-05-04T15:11:12.980Z,26.80
2023-05-04T15:13:15.840Z,26.71
2023-05-04T15:15:19.232Z,26.76
2023-05-04T15:17:20.806Z,26.68
2023-05-04T15:19:22.240Z,26.76
2023-05-04T15:21:23.745Z,26.66
2023-05-04T15:23:25.444Z,26.61
2023-05-04T15:25:27.302Z,26.69
2023-05-04T15:27:28.865Z,26.74
2023-05-04T15:29:30.493Z,26.81
2023-05-04T15:31:32.134Z,26.76
2023-05-04T15:33:33.771Z,26.80
2023-05-04T15:35:36.027Z,26.65
2023-05-04T15:37:37.699Z,26.53
2023-05-04T15:39:39.349Z,26.45
2023-05-04T15:41:42.556Z,26.44
2023-05-04T15:43:43.995Z,26.39
2023-05-04T15:45:45.850Z,26.46
2023-05-04T15:47:47.503Z,26.40
2023-05-04T15:49:49.023Z,26.42
2023-05-04T15:51:50.487Z,26.49
2023-05-04T15:53:51.879Z,26.51
2023-05-04T15:55:53.332Z,26.49
2023-05-04T15:57:54.918Z,26.55
2023-05-04T15:59:56.448Z,26.61
2023-05-04T16:01:57.884Z,26.68
2023-05-04T16:03:59.752Z,26.65
2023-05-04T16:06:01.653Z,26.63
2023-05-04T16:08:03.302Z,26.52
2023-05-04T16:10:05.271Z,26.56
2023-05-04T16:12:07.363Z,26.61
2023-05-04T16:14:08.982Z,26.61
2023-05-04T16:16:10.553Z,26.61
2023-05-04T16:18:12.221Z,26.43
2023-05-04T16:20:13.656Z,26.35
2023-05-04T16:22:15.178Z,26.42
2023-05-04T16:24:16.588Z,26.52
2023-05-04T16:26:18.109Z,26.55
2023-05-04T16:28:19.539Z,26.53
2023-05-04T16:30:21.665Z,26.61
2023-05-04T16:32:23.402Z,26.62
2023-05-04T16:34:24.990Z,26.58
2023-05-04T16:36:26.728Z,26.63
2023-05-04T16:38:28.129Z,26.66
2023-05-04T16:40:32.085Z,26.52
2023-05-04T16:42:33.537Z,26.53
2023-05-04T16:44:35.326Z,26.57
2023-05-04T16:46:36.874Z,26.56
2023-05-04T16:48:38.821Z,26.58
2023-05-04T16:50:40.437Z,26.66
2023-05-04T16:52:41.947Z,26.63
2023-05-04T16:54:43.442Z,26.63
2023-05-04T16:56:45.106Z,26.57
2023-05-04T16:58:46.630Z,26.60
2023-05-04T17:00:48.013Z,26.58
2023-05-04T17:02:49.582Z,26.61
2023-05-04T17:04:51.281Z,26.66
2023-05-04T17:06:52.762Z,26.61
2023-05-04T17:08:54.276Z,26.55
2023-05-04T17:10:59.814Z,26.55
2023-05-04T17:13:02.574Z,26.52
2023-05-04T17:15:04.624Z,26.58
2023-05-04T17:17:06.779Z,26.66
2023-05-04T17:19:10.789Z,26.70
2023-05-04T17:21:12.615Z,26.68
2023-05-04T17:23:14.030Z,26.74
2023-05-04T17:25:15.566Z,26.69
2023-05-04T17:27:17.062Z,26.69
2023-05-04T17:29:18.676Z,26.61
2023-05-04T17:31:20.414Z,26.74
2023-05-04T17:33:23.773Z,26.79
2023-05-04T17:35:26.652Z,26.73
2023-05-04T17:37:28.446Z,26.77
2023-05-04T17:39:32.946Z,26.72
2023-05-04T17:41:34.550Z,26.62
2023-05-04T17:43:36.169Z,26.62
2023-05-04T17:45:37.720Z,26.67
2023-05-04T17:47:39.285Z,26.66
2023-05-04T17:49:41.003Z,26.69
2023-05-04T17:51:42.566Z,26.70
2023-05-04T17:53:44.350Z,26.69
2023-05-04T17:55:45.840Z,26.71
2023-05-04T17:57:47.420Z,26.72
2023-05-04T17:59:49.632Z,26.73
2023-05-04T18:01:51.667Z,26.77
2023-05-04T18:03:53.247Z,26.76
2023-05-04T18:05:54.914Z,26.71
2023-05-04T18:07:56.301Z,26.71
2023-05-04T18:09:57.888Z,26.72
2023-05-04T18:11:59.366Z,26.69
2023-05-04T18:14:01.040Z,26.65
2023-05-04T18:16:02.635Z,26.66
2023-05-04T18:18:04.228Z,26.66
2023-05-04T18:20:07.306Z,26.68
2023-05-04T18:22:08.994Z,26.72
2023-05-04T18:24:10.764Z,26.79
2023-05-04T18:26:19.496Z,26.84
2023-05-04T18:28:21.125Z,26.89
2023-05-04T18:30:22.590Z,26.94
2023-05-04T18:32:24.409Z,26.98
2023-05-04T18:34:25.783Z,27.02
2023-05-04T18:36:27.156Z,27.06
2023-05-04T18:38:28.763Z,27.08
2023-05-04T18:40:31.596Z,27.12
2023-05-04T18:42:33.047Z,27.14
2023-05-04T18:44:34.510Z,27.13
2023-05-04T18:46:36.136Z,27.17
2023-05-04T18:48:37.987Z,27.18
2023-05-04T18:50:39.778Z,27.21
2023-05-04T18:52:41.308Z,27.25
2023-05-04T18:54:42.834Z,27.27
2023-05-04T18:56:44.262Z,27.31
2023-05-04T18:58:45.685Z,27.34
2023-05-04T19:00:47.213Z,27.48
2023-05-04T19:02:48.926Z,27.55
2023-05-04T19:04:50.556Z,27.64
2023-05-04T19:06:53.601Z,27.66
2023-05-04T19:08:55.057Z,27.70
2023-05-04T19:11:01.269Z,27.74
2023-05-04T19:13:03.173Z,27.78
2023-05-04T19:15:05.773Z,27.80
2023-05-04T19:17:08.121Z,27.82
2023-05-04T19:19:09.793Z,27.84
2023-05-04T19:21:11.252Z,27.86
2023-05-04T19:23:12.869Z,27.89
2023-05-04T19:25:27.024Z,27.91
2023-05-04T19:27:35.135Z,27.93
2023-05-04T19:29:36.535Z,27.94
2023-05-04T19:31:38.044Z,27.96
2023-05-04T19:33:47.865Z,27.98
2023-05-04T19:35:49.762Z,28.01
2023-05-04T19:37:51.210Z,28.01
2023-05-04T19:39:52.905Z,27.95
2023-05-04T19:41:54.489Z,28.04
2023-05-04T19:43:55.922Z,28.05
2023-05-04T19:45:57.489Z,28.07
2023-05-04T19:47:59.138Z,28.08
2023-05-04T19:50:00.630Z,28.10
2023-05-04T19:52:02.081Z,28.11
2023-05-04T19:54:03.648Z,28.11
2023-05-04T19:56:05.338Z,28.13
2023-05-04T19:58:07.064Z,28.14
2023-05-04T20:00:10.250Z,28.15
2023-05-04T20:02:12.388Z,28.15
2023-05-04T20:04:13.860Z,28.16
2023-05-04T20:06:15.417Z,28.16
2023-05-04T20:08:18.184Z,28.16
2023-05-04T20:10:19.592Z,28.17
2023-05-04T20:12:21.464Z,28.19
2023-05-04T20:14:23.055Z,28.18
2023-05-04T20:16:24.643Z,28.19
2023-05-04T20:18:26.389Z,28.19
2023-05-04T20:20:27.910Z,28.21
2023-05-04T20:22:29.406Z,28.23
2023-05-04T20:24:30.954Z,28.23
2023-05-04T20:26:32.650Z,28.22
2023-05-04T20:28:34.236Z,28.23
2023-05-04T20:30:35.877Z,28.24
2023-05-04T20:32:37.343Z,28.25
2023-05-04T20:34:39.741Z,28.25
2023-05-04T20:36:42.882Z,28.28
2023-05-04T20:38:44.475Z,28.25
2023-05-04T20:40:45.895Z,28.25
2023-05-04T20:42:47.365Z,28.26
2023-05-04T20:44:48.861Z,28.27
2023-05-04T20:46:50.537Z,28.28
2023-05-04T20:48:52.024Z,28.29
2023-05-04T20:51:02.843Z,28.29
2023-05-04T20:53:15.506Z,28.29
2023-05-04T20:55:17.766Z,28.28
2023-05-04T20:57:19.240Z,28.30
2023-05-04T20:59:20.716Z,28.30
2023-05-04T21:01:22.293Z,28.31
2023-05-04T21:03:23.915Z,28.31
2023-05-04T21:05:25.489Z,28.31
2023-05-04T21:07:27.654Z,28.33
2023-05-04T21:09:29.108Z,28.33
2023-05-04T21:11:30.540Z,28.31
2023-05-04T21:13:32.026Z,28.32
2023-05-04T21:15:33.529Z,28.32
2023-05-04T21:17:34.934Z,28.35
2023-05-04T21:19:36.311Z,28.35
2023-05-04T21:21:40.906Z,28.35
2023-05-04T21:23:42.483Z,28.35
2023-05-04T21:25:43.907Z,28.35
2023-05-04T21:27:45.333Z,28.36
2023-05-04T21:29:46.762Z,28.37
2023-05-04T21:31:48.206Z,28.38
2023-05-04T21:33:50.882Z,28.37
2023-05-04T21:35:52.449Z,28.36
2023-05-04T21:37:54.030Z,28.36
2023-05-04T21:39:55.745Z,28.36
2023-05-04T21:41:57.403Z,28.37
2023-05-04T21:43:58.835Z,28.38
2023-05-04T21:46:00.265Z,28.38
2023-05-04T21:48:03.434Z,28.40
2023-05-04T21:50:05.585Z,28.39
2023-05-04T21:52:07.065Z,28.39
2023-05-04T21:54:08.705Z,28.41
2023-05-04T21:56:10.698Z,28.42
2023-05-04T21:58:12.334Z,28.41
2023-05-04T22:00:17.888Z,28.41
2023-05-04T22:02:19.491Z,28.41
2023-05-04T22:04:21.494Z,28.35
2023-05-04T22:06:24.461Z,28.43
2023-05-04T22:08:26.720Z,28.44
2023-05-04T22:10:28.386Z,28.42
2023-05-04T22:12:30.179Z,28.43
2023-05-04T22:14:31.833Z,28.44
2023-05-04T22:16:33.352Z,28.45
2023-05-04T22:18:34.961Z,28.44
2023-05-04T22:20:37.568Z,28.46
2023-05-04T22:22:38.971Z,28.45
2023-05-04T22:24:40.748Z,28.46
2023-05-04T22:26:42.262Z,28.49
2023-05-04T22:28:43.677Z,28.47
2023-05-04T22:30:45.367Z,28.47
2023-05-04T22:32:46.899Z,28.48
2023-05-04T22:34:48.754Z,28.47
2023-05-04T22:36:50.152Z,28.47
2023-05-04T22:38:52.330Z,28.49
2023-05-04T22:40:53.723Z,28.50
2023-05-04T22:42:55.220Z,28.49
2023-05-04T22:44:56.862Z,28.51
2023-05-04T22:46:58.300Z,28.49
2023-05-04T22:48:59.772Z,28.50
2023-05-04T22:51:01.389Z,28.50
2023-05-04T22:53:03.004Z,28.50
2023-05-04T22:55:04.837Z,28.52
2023-05-04T22:57:06.947Z,28.51
2023-05-04T22:59:08.493Z,28.51
2023-05-04T23:01:13.012Z,28.53
2023-05-04T23:03:14.693Z,28.53
2023-05-04T23:05:16.270Z,28.52
2023-05-04T23:07:18.021Z,28.51
2023-05-04T23:09:19.624Z,28.52
2023-05-04T23:11:21.969Z,28.50
2023-05-04T23:13:24.389Z,28.51
2023-05-04T23:15:25.903Z,28.52
2023-05-04T23:17:27.607Z,28.53
2023-05-04T23:19:30.046Z,28.55
2023-05-04T23:21:31.548Z,28.55
2023-05-04T23:23:33.374Z,28.54
2023-05-04T23:25:34.854Z,28.52
2023-05-04T23:27:36.364Z,28.51
2023-05-04T23:29:37.914Z,28.52
2023-05-04T23:31:39.437Z,28.53
2023-05-04T23:33:41.644Z,28.55
2023-05-04T23:35:43.297Z,28.54
2023-05-04T23:37:44.720Z,28.53
2023-05-04T23:39:47.114Z,28.54
2023-05-04T23:41:48.999Z,28.55
2023-05-04T23:43:50.599Z,28.54
2023-05-04T23:45:58.610Z,28.54
2023-05-04T23:48:00.530Z,28.53
2023-05-04T23:50:02.295Z,28.52
2023-05-04T23:52:03.803Z,28.53
2023-05-04T23:54:05.438Z,28.55
2023-05-04T23:56:07.356Z,28.56
2023-05-04T23:58:08.756Z,28.57
